Time;durP1;ratioP1;P1;durP2;ratioP2;P2;SDS_P1;SDS_P2;PMS_P1;PMS_P2;Temp;Humidity;BMP_temperature;BMP_pressure;BME280_temperature;BME280_humidity;BME280_pressure;Samples;Min_cycle;Max_cycle;Signal;HPM_P1;HPM_P2
2022/02/03 00:01:21;;;;;;;;;;;;;;;23.28;22.10;101066.13;5016770;28;1168;-76
2022/02/03 00:03:52;;;;;;;;;;;;;;;23.61;21.57;101069.16;5034274;28;1340;-77
2022/02/03 00:06:26;;;;;;;;;;;;;;;23.09;22.21;101062.97;5033062;28;877;-78
2022/02/03 00:09:13;;;;;;;;;;;;;;;23.15;22.24;101064.94;5034299;28;1977;-79
2022/02/03 00:16:09;;;;;;;;;;;;;;;23.21;22.07;101071.59;5033157;28;1675;-77
2022/02/03 00:22:53;;;;;;;;;;;;;;;23.37;21.87;101087.94;5033687;28;1341;-75
2022/02/03 00:25:26;;;;;;;;;;;;;;;23.53;21.76;101097.84;5033921;28;1043;-75
2022/02/03 00:27:59;;;;;;;;;;;;;;;23.11;21.90;101094.06;5033958;28;1977;-78
2022/02/03 00:30:34;;;;;;;;;;;;;;;23.04;22.16;101085.69;5032683;28;936;-78
2022/02/03 00:36:03;;;;;;;;;;;;;;;22.40;23.22;101097.56;5011995;28;1091;-76
2022/02/03 00:49:47;;;;;;;;;;;;;;;22.30;22.91;101100.59;5033122;28;1984;-78
2022/02/03 00:52:14;;;;;;;;;;;;;;;22.49;23.19;101092.75;5032252;28;777;-76
2022/02/03 00:54:40;;;;;;;;;;;;;;;22.34;23.26;101104.69;5032889;28;1345;-77
2022/02/03 00:57:08;;;;;;;;;;;;;;;22.42;23.15;101106.50;5032994;28;1058;-79
2022/02/03 00:59:37;;;;;;;;;;;;;;;22.82;22.82;101098.69;5033174;28;777;-79
2022/02/03 01:02:05;;;;;;;;;;;;;;;22.96;22.41;101096.06;5032147;28;1050;-78
2022/02/03 01:04:31;;;;;;;;;;;;;;;22.79;22.47;101100.97;5031654;28;1296;-78
2022/02/03 01:06:59;;;;;;;;;;;;;;;23.15;22.40;101098.16;5033099;28;916;-78
2022/02/03 01:09:30;;;;;;;;;;;;;;;21.71;23.57;101109.75;5033149;28;1981;-79
2022/02/03 01:12:04;;;;;;;;;;;;;;;22.55;22.85;101101.16;5033286;28;871;-76
2022/02/03 01:14:42;;;;;;;;;;;;;;;23.12;22.16;101100.47;5031369;28;1340;-78
2022/02/03 01:17:23;;;;;;;;;;;;;;;21.89;23.78;101101.09;5033000;28;1014;-76
2022/02/03 01:33:56;;;;;;;;;;;;;;;22.76;22.87;101106.91;5032635;28;1315;-79
2022/02/03 01:44:53;;;;;;;;;;;;;;;22.38;23.57;101111.59;5014260;28;1409;-76
2022/02/03 01:47:36;;;;;;;;;;;;;;;22.04;23.95;101101.94;5032397;28;970;-76
2022/02/03 01:52:51;;;;;;;;;;;;;;;22.62;23.14;101103.13;5030885;28;1423;-77
2022/02/03 01:55:19;;;;;;;;;;;;;;;22.47;23.58;101100.41;5032168;28;790;-78
2022/02/03 01:57:49;;;;;;;;;;;;;;;23.41;22.84;101099.47;5031941;28;1042;-77
2022/02/03 02:00:16;;;;;;;;;;;;;;;22.52;23.65;101096.00;5031050;28;868;-78
2022/02/03 02:02:44;;;;;;;;;;;;;;;23.08;23.30;101088.91;5032061;28;1297;-78
2022/02/03 02:05:18;;;;;;;;;;;;;;;24.09;21.95;101086.91;5031978;28;928;-77
2022/02/03 02:07:54;;;;;;;;;;;;;;;22.93;23.04;101093.66;5032116;28;793;-75
2022/02/03 02:10:45;;;;;;;;;;;;;;;23.21;23.10;101099.28;5029940;28;1914;-76
2022/02/03 02:13:33;;;;;;;;;;;;;;;22.97;23.37;101089.44;5014003;28;1333;-78
2022/02/03 02:16:10;;;;;;;;;;;;;;;23.15;22.98;101095.38;5030432;28;944;-77
2022/02/03 02:18:57;;;;;;;;;;;;;;;23.82;21.99;101087.59;5031748;28;1054;-78
2022/02/03 02:38:09;;;;;;;;;;;;;;;22.84;23.24;101060.59;5013726;28;1558;-77
2022/02/03 02:43:50;;;;;;;;;;;;;;;23.29;23.01;101065.94;5108720;27;1655;-77
2022/02/03 02:46:20;;;;;;;;;;;;;;;22.47;24.01;101053.38;5108211;28;1142;-77
2022/02/03 02:49:00;;;;;;;;;;;;;;;22.55;23.60;101056.91;5108549;28;1041;-77
2022/02/03 02:51:33;;;;;;;;;;;;;;;22.09;23.78;101054.41;5107339;28;955;-76
2022/02/03 02:56:57;;;;;;;;;;;;;;;23.34;22.58;101052.34;5104289;28;1091;-77
2022/02/03 02:59:51;;;;;;;;;;;;;;;22.38;23.82;101045.22;5109066;28;717;-78
2022/02/03 03:02:48;;;;;;;;;;;;;;;23.05;23.04;101047.81;5108411;28;1922;-77
2022/02/03 03:30:24;;;;;;;;;;;;;;;22.41;24.46;101008.03;5086419;28;1142;-79
2022/02/03 03:33:03;;;;;;;;;;;;;;;22.45;24.10;101005.69;5109005;28;1321;-78
2022/02/03 03:35:38;;;;;;;;;;;;;;;22.99;23.77;101002.38;5108201;28;1253;-79
2022/02/03 03:38:06;;;;;;;;;;;;;;;22.94;23.83;101004.03;5109371;28;1053;-78
2022/02/03 03:40:34;;;;;;;;;;;;;;;22.95;24.03;101006.59;5109908;28;985;-79
2022/02/03 03:43:02;;;;;;;;;;;;;;;22.76;24.01;100991.53;5123872;27;1961;-78
2022/02/03 03:45:30;;;;;;;;;;;;;;;22.71;24.09;101008.72;5129310;28;977;-79
2022/02/03 03:48:00;;;;;;;;;;;;;;;23.12;23.67;101009.09;5110851;28;899;-79
2022/02/03 03:50:28;;;;;;;;;;;;;;;23.32;23.43;101012.91;5130204;27;847;-77
2022/02/03 03:52:58;;;;;;;;;;;;;;;23.38;23.55;101011.22;5127846;27;1295;-76
2022/02/03 03:55:36;;;;;;;;;;;;;;;22.38;24.49;101008.38;5115873;28;1020;-77
2022/02/03 03:58:30;;;;;;;;;;;;;;;22.34;24.71;101004.28;5113114;28;804;-77
2022/02/03 04:29:45;;;;;;;;;;;;;;;23.16;23.75;100982.75;5093669;28;967;-77
2022/02/03 04:32:44;;;;;;;;;;;;;;;23.19;23.71;100988.72;5112307;28;1253;-78
2022/02/03 04:38:31;;;;;;;;;;;;;;;23.20;23.65;100984.91;5086975;28;1238;-78
2022/02/03 04:41:38;;;;;;;;;;;;;;;24.24;22.45;100979.50;5112102;28;983;-78
2022/02/03 04:55:59;;;;;;;;;;;;;;;24.06;22.77;100974.50;5129284;27;1429;-76
2022/02/03 05:04:12;;;;;;;;;;;;;;;24.38;22.43;100975.66;5110359;28;1415;-76
2022/02/03 05:06:57;;;;;;;;;;;;;;;23.97;22.74;100971.09;5108306;28;1511;-78
2022/02/03 05:09:46;;;;;;;;;;;;;;;24.95;22.11;100978.09;5107183;28;784;-76
2022/02/03 05:12:29;;;;;;;;;;;;;;;24.94;21.86;100978.31;5106890;28;1509;-80
2022/02/03 05:18:17;;;;;;;;;;;;;;;24.40;22.08;100976.31;5107143;28;1898;-78
2022/02/03 05:21:12;;;;;;;;;;;;;;;24.31;22.68;100982.28;5106884;28;1504;-78
2022/02/03 05:24:09;;;;;;;;;;;;;;;24.56;22.08;100975.06;5092884;28;2038;-75
2022/02/03 05:27:07;;;;;;;;;;;;;;;25.13;21.67;100977.44;5103591;28;1153;-77
2022/02/03 05:33:00;;;;;;;;;;;;;;;24.56;21.81;100983.38;5105559;28;1485;-77
2022/02/03 05:44:25;;;;;;;;;;;;;;;24.46;22.29;100974.63;5107860;28;1390;-78
2022/02/03 05:47:06;;;;;;;;;;;;;;;24.72;21.92;100981.31;5107256;28;1253;-78
2022/02/03 05:52:53;;;;;;;;;;;;;;;25.36;21.35;100973.38;5104946;28;1308;-76
2022/02/03 06:01:12;;;;;;;;;;;;;;;24.66;21.75;100965.50;5107824;28;769;-75
2022/02/03 06:04:07;;;;;;;;;;;;;;;24.15;22.17;100962.16;5107570;28;1399;-78
2022/02/03 06:07:04;;;;;;;;;;;;;;;24.99;21.42;100959.09;5096123;28;1001;-76
2022/02/03 06:09:46;;;;;;;;;;;;;;;24.26;22.37;100957.09;5092722;28;890;-78
2022/02/03 06:15:10;;;;;;;;;;;;;;;24.37;22.11;100960.09;5079851;28;2340;-78
2022/02/03 06:20:39;;;;;;;;;;;;;;;24.32;22.06;100962.66;5094077;28;1177;-74
2022/02/03 06:20:55;;;;;;;;;;;;;;;23.82;22.79;100953.72;5093421;28;994;-76
2022/02/03 06:23:26;;;;;;;;;;;;;;;24.03;22.42;100952.75;5093379;28;1315;-73
2022/02/03 06:28:36;;;;;;;;;;;;;;;24.73;21.55;100949.69;5091937;28;990;-76
2022/02/03 06:31:02;;;;;;;;;;;;;;;24.60;21.87;100942.22;5092134;28;1010;-76
2022/02/03 06:33:29;;;;;;;;;;;;;;;24.67;21.48;100931.13;5093329;28;1972;-76
2022/02/03 06:35:56;;;;;;;;;;;;;;;24.76;21.69;100929.88;5093194;28;828;-77
2022/02/03 06:38:22;;;;;;;;;;;;;;;24.83;21.38;100927.91;5091799;28;1336;-75
2022/02/03 06:40:49;;;;;;;;;;;;;;;24.98;21.43;100929.63;5093022;28;986;-74
2022/02/03 06:43:18;;;;;;;;;;;;;;;24.99;21.36;100931.34;5092631;28;1479;-72
2022/02/03 06:45:48;;;;;;;;;;;;;;;24.73;21.40;100931.13;5092809;28;994;-73
2022/02/03 06:48:18;;;;;;;;;;;;;;;24.82;21.25;100920.66;5074946;28;1492;-74
2022/02/03 06:50:49;;;;;;;;;;;;;;;24.62;21.75;100929.00;5091790;28;907;-76
2022/02/03 06:53:20;;;;;;;;;;;;;;;25.02;21.41;100940.06;5091797;28;1337;-78
2022/02/03 06:55:51;;;;;;;;;;;;;;;24.63;21.58;100929.88;5091553;28;1973;-77
2022/02/03 06:58:22;;;;;;;;;;;;;;;25.03;21.33;100918.72;5092020;28;990;-77
2022/02/03 07:00:59;;;;;;;;;;;;;;;24.76;21.49;100921.53;5093172;28;1478;-78
2022/02/03 07:03:31;;;;;;;;;;;;;;;24.06;22.41;100919.94;5093016;28;1411;-76
2022/02/03 07:05:57;;;;;;;;;;;;;;;24.70;21.73;100926.00;5092165;28;1026;-75
2022/02/03 07:08:26;;;;;;;;;;;;;;;24.68;21.38;100916.16;5108220;28;1189;-75
2022/02/03 07:10:54;;;;;;;;;;;;;;;24.95;21.36;100919.81;5092472;28;1019;-77
2022/02/03 07:13:21;;;;;;;;;;;;;;;24.38;21.89;100916.56;5092398;28;1359;-77
2022/02/03 07:15:47;;;;;;;;;;;;;;;24.90;21.23;100923.22;5090915;28;1910;-76
2022/02/03 07:18:13;;;;;;;;;;;;;;;24.58;21.66;100909.09;5091313;28;1165;-76
2022/02/03 07:20:40;;;;;;;;;;;;;;;24.16;22.22;100911.19;5091394;28;855;-75
2022/02/03 07:23:07;;;;;;;;;;;;;;;24.72;21.64;100909.16;5092389;28;1353;-76
2022/02/03 07:25:34;;;;;;;;;;;;;;;24.89;21.49;100910.41;5092307;28;1030;-77
2022/02/03 07:28:02;;;;;;;;;;;;;;;24.85;21.51;100911.91;5091054;28;883;-76
2022/02/03 07:30:28;;;;;;;;;;;;;;;25.10;21.20;100910.38;5092374;28;1068;-76
2022/02/03 07:32:57;;;;;;;;;;;;;;;24.69;21.57;100909.56;5091913;28;1273;-73
2022/02/03 07:35:23;;;;;;;;;;;;;;;24.28;22.03;100910.56;5091530;28;1909;-73
2022/02/03 07:37:51;;;;;;;;;;;;;;;24.66;21.73;100910.00;5090793;28;891;-72
2022/02/03 07:40:18;;;;;;;;;;;;;;;24.71;21.53;100905.50;5090550;28;1162;-75
2022/02/03 07:42:48;;;;;;;;;;;;;;;24.45;21.86;100894.38;5086434;28;1601;-75
2022/02/03 07:45:16;;;;;;;;;;;;;;;25.29;21.12;100892.81;5090947;28;1261;-74
2022/02/03 07:47:43;;;;;;;;;;;;;;;24.98;21.27;100891.59;5090535;28;1313;-75
2022/02/03 07:50:09;;;;;;;;;;;;;;;24.96;21.17;100884.56;5091932;28;977;-75
2022/02/03 07:52:36;;;;;;;;;;;;;;;24.96;21.44;100890.09;5091963;28;1401;-76
2022/02/03 07:55:02;;;;;;;;;;;;;;;24.90;21.19;100892.66;5088325;28;1975;-76
2022/02/03 07:57:28;;;;;;;;;;;;;;;25.04;21.44;100899.06;5090157;28;1002;-76
2022/02/03 07:59:56;;;;;;;;;;;;;;;24.63;21.81;100897.41;5090325;28;1025;-72
2022/02/03 08:02:22;;;;;;;;;;;;;;;24.97;21.72;100891.81;5091236;28;1308;-73
2022/02/03 08:04:50;;;;;;;;;;;;;;;25.27;21.06;100889.41;5091183;28;1007;-76
2022/02/03 08:07:19;;;;;;;;;;;;;;;25.81;20.95;100886.44;5089723;28;1149;-73
2022/02/03 08:09:53;;;;;;;;;;;;;;;25.81;20.43;100883.66;5091004;28;994;-75
2022/02/03 08:12:22;;;;;;;;;;;;;;;25.62;20.93;100889.09;5091226;28;891;-71
2022/02/03 08:14:50;;;;;;;;;;;;;;;25.59;20.59;100888.66;5090465;28;1910;-75
2022/02/03 08:17:22;;;;;;;;;;;;;;;25.73;20.57;100891.19;5091278;28;1034;-74
2022/02/03 08:19:54;;;;;;;;;;;;;;;25.28;21.37;100885.56;5090286;28;1206;-73
2022/02/03 08:22:25;;;;;;;;;;;;;;;25.35;21.07;100880.00;5071851;28;1384;-71
2022/02/03 08:24:55;;;;;;;;;;;;;;;25.44;21.43;100878.69;5082952;28;1050;-73
2022/02/03 08:32:54;;;;;;;;;;;;;;;26.80;20.42;100863.69;5090329;28;1373;-72
2022/02/03 08:35:33;;;;;;;;;;;;;;;26.75;20.15;100869.09;5090125;28;1913;-74
2022/02/03 08:38:06;;;;;;;;;;;;;;;27.18;19.70;100869.06;5089667;28;1476;-76
2022/02/03 08:40:43;;;;;;;;;;;;;;;28.02;19.49;100857.31;5090650;28;926;-73
2022/02/03 08:43:10;;;;;;;;;;;;;;;27.35;19.58;100860.09;5089229;28;1394;-76
2022/02/03 08:45:36;;;;;;;;;;;;;;;27.77;19.22;100853.78;5090691;28;902;-75
2022/02/03 08:48:04;;;;;;;;;;;;;;;27.25;19.81;100862.59;5089410;28;1108;-75
2022/02/03 08:50:33;;;;;;;;;;;;;;;27.49;19.68;100852.47;5089390;28;1296;-75
2022/02/03 08:53:04;;;;;;;;;;;;;;;27.67;19.50;100849.63;5089215;28;1335;-75
2022/02/03 08:55:38;;;;;;;;;;;;;;;28.09;19.21;100846.06;5089114;28;1914;-76
2022/02/03 08:58:31;;;;;;;;;;;;;;;27.09;19.85;100848.19;5087132;28;1014;-76
2022/02/03 09:39:53;;;;;;;;;;;;;;;27.94;20.01;100814.91;5090204;28;1046;-74
2022/02/03 09:54:05;;;;;;;;;;;;;;;26.47;21.49;100800.81;5108353;27;1323;-75
2022/02/03 09:57:04;;;;;;;;;;;;;;;27.04;21.59;100807.09;5108008;28;1241;-75
2022/02/03 09:59:37;;;;;;;;;;;;;;;27.06;21.00;100795.75;5108051;28;1087;-72
2022/02/03 10:02:09;;;;;;;;;;;;;;;28.02;20.42;100792.28;5094971;28;1234;-73
2022/02/03 10:04:44;;;;;;;;;;;;;;;28.60;19.88;100793.44;5098319;28;1414;-75
2022/02/03 10:07:16;;;;;;;;;;;;;;;27.62;21.00;100795.66;5098432;28;1293;-75
2022/02/03 10:09:45;;;;;;;;;;;;;;;28.55;20.57;100793.31;5097158;28;1239;-76
2022/02/03 10:12:12;;;;;;;;;;;;;;;28.06;20.56;100788.78;5096423;28;1989;-73
2022/02/03 10:14:39;;;;;;;;;;;;;;;28.97;19.99;100789.53;5096153;28;1379;-74
2022/02/03 10:17:06;;;;;;;;;;;;;;;28.16;20.82;100784.56;5097243;28;1230;-73
2022/02/03 10:19:35;;;;;;;;;;;;;;;26.04;22.61;100797.78;5098088;28;1258;-77
2022/02/03 10:22:02;;;;;;;;;;;;;;;28.37;20.22;100783.13;5095108;28;1292;-73
2022/02/03 10:24:33;;;;;;;;;;;;;;;28.36;20.48;100778.63;5093991;28;1553;-77
2022/02/03 10:27:01;;;;;;;;;;;;;;;28.27;20.82;100774.50;5087704;28;986;-77
2022/02/03 10:29:32;;;;;;;;;;;;;;;28.55;20.66;100766.28;5086447;28;1176;-74
2022/02/03 10:31:59;;;;;;;;;;;;;;;28.69;20.49;100757.66;5087321;28;1902;-73
2022/02/03 10:34:29;;;;;;;;;;;;;;;27.44;21.99;100761.19;5085600;28;1259;-75
2022/02/03 10:37:03;;;;;;;;;;;;;;;28.06;21.25;100762.81;5100908;28;1550;-75
2022/02/03 10:42:38;;;;;;;;;;;;;;;26.72;23.07;100753.50;5082093;28;1386;-75
2022/02/03 10:45:33;;;;;;;;;;;;;;;27.25;22.05;100751.16;5106897;28;1054;-73
2022/02/03 10:54:09;;;;;;;;;;;;;;;27.83;22.15;100735.72;5103493;28;1921;-75
2022/02/03 10:59:57;;;;;;;;;;;;;;;28.43;21.88;100722.69;5064013;28;1252;-75
2022/02/03 11:02:43;;;;;;;;;;;;;;;27.02;23.04;100724.88;5106020;28;1391;-73
2022/02/03 11:05:22;;;;;;;;;;;;;;;27.66;22.96;100718.81;5093136;28;973;-73
2022/02/03 11:07:53;;;;;;;;;;;;;;;27.67;23.00;100720.53;5093480;28;1029;-75
2022/02/03 11:10:31;;;;;;;;;;;;;;;28.05;22.90;100714.56;5093868;28;895;-74
2022/02/03 11:12:58;;;;;;;;;;;;;;;27.56;23.26;100702.69;5093392;28;1912;-73
2022/02/03 11:15:27;;;;;;;;;;;;;;;28.12;22.97;100706.06;5090164;28;923;-75
2022/02/03 11:17:54;;;;;;;;;;;;;;;28.84;22.37;100710.50;5092155;28;1220;-74
2022/02/03 11:20:22;;;;;;;;;;;;;;;26.47;25.05;100707.06;5092172;28;1010;-77
2022/02/03 11:22:54;;;;;;;;;;;;;;;27.20;24.27;100708.09;5093253;28;1334;-75
2022/02/03 11:25:33;;;;;;;;;;;;;;;28.06;23.29;100698.66;5085952;28;1723;-72
2022/02/03 11:28:19;;;;;;;;;;;;;;;28.93;22.83;100704.53;5091837;28;1340;-77
2022/02/03 11:31:22;;;;;;;;;;;;;;;27.80;24.28;100698.00;5091651;28;1237;-76
2022/02/03 11:34:16;;;;;;;;;;;;;;;28.01;24.17;100693.00;5091678;28;1972;-76
2022/02/03 11:39:59;;;;;;;;;;;;;;;27.27;24.48;100690.44;5093153;28;914;-74
2022/02/03 11:51:04;;;;;;;;;;;;;;;26.65;25.92;100683.94;5062288;28;1226;-77
2022/02/03 11:53:54;;;;;;;;;;;;;;;26.94;25.31;100664.78;5091750;28;1973;-76
2022/02/03 11:59:43;;;;;;;;;;;;;;;28.26;24.40;100663.97;5052861;28;1073;-76
2022/02/03 12:02:32;;;;;;;;;;;;;;;28.67;23.63;100656.53;5052776;28;1006;-75
2022/02/03 12:05:20;;;;;;;;;;;;;;;28.11;24.29;100659.75;5052184;28;1425;-75
2022/02/03 12:10:11;;;;;;;;;;;;;;;28.06;24.41;100646.53;5052610;28;1259;-76
2022/02/03 12:11:13;;;;;;;;;;;;;;;27.46;25.10;100655.03;5050964;28;1055;-76
2022/02/03 12:13:59;;;;;;;;;;;;;;;28.17;24.43;100650.41;5034147;28;1906;-76
2022/02/03 12:16:32;;;;;;;;;;;;;;;28.21;24.42;100654.41;5060615;28;1412;-75
2022/02/03 12:19:17;;;;;;;;;;;;;;;28.89;23.67;100643.59;5060232;28;1005;-76
2022/02/03 12:21:50;;;;;;;;;;;;;;;28.62;23.93;100642.44;5069624;28;955;-75
2022/02/03 12:24:27;;;;;;;;;;;;;;;28.05;24.55;100635.63;5052595;28;1493;-75
2022/02/03 12:27:01;;;;;;;;;;;;;;;27.84;25.05;100635.09;5050475;28;988;-75
2022/02/03 12:29:31;;;;;;;;;;;;;;;27.58;25.20;100638.34;5053512;28;916;-75
2022/02/03 12:32:06;;;;;;;;;;;;;;;27.41;25.37;100639.03;5054695;28;1973;-76
2022/02/03 12:37:41;;;;;;;;;;;;;;;27.00;26.12;100627.63;5050389;28;998;-77
2022/02/03 12:40:17;;;;;;;;;;;;;;;28.33;24.84;100617.28;5051755;28;1531;-76
2022/02/03 12:42:52;;;;;;;;;;;;;;;28.74;24.29;100606.97;5050332;28;800;-75
2022/02/03 12:45:23;;;;;;;;;;;;;;;28.39;24.42;100613.47;5049994;28;1385;-76
2022/02/03 12:47:53;;;;;;;;;;;;;;;28.63;24.29;100611.47;5050662;28;1002;-76
2022/02/03 12:50:23;;;;;;;;;;;;;;;27.43;25.56;100600.63;5051631;28;885;-74
2022/02/03 12:52:51;;;;;;;;;;;;;;;27.99;24.99;100601.13;5051818;28;1911;-77
2022/02/03 12:55:27;;;;;;;;;;;;;;;27.06;26.33;100598.00;5051007;28;1300;-77
2022/02/03 12:57:54;;;;;;;;;;;;;;;28.01;25.25;100592.56;5051810;28;958;-76
2022/02/03 13:00:27;;;;;;;;;;;;;;;28.35;24.78;100588.00;5051413;28;967;-76
2022/02/03 13:02:55;;;;;;;;;;;;;;;27.23;25.75;100581.41;5051745;28;1033;-74
2022/02/03 13:05:22;;;;;;;;;;;;;;;27.83;25.30;100568.41;5051000;28;1348;-76
2022/02/03 13:07:54;;;;;;;;;;;;;;;28.64;24.76;100576.03;5051673;28;1006;-75
2022/02/03 13:10:22;;;;;;;;;;;;;;;28.16;25.17;100573.38;5050081;28;947;-76
2022/02/03 13:12:55;;;;;;;;;;;;;;;28.50;24.72;100575.47;5051968;28;1898;-76
2022/02/03 13:15:29;;;;;;;;;;;;;;;28.60;24.67;100570.09;5050731;28;1316;-77
2022/02/03 13:17:59;;;;;;;;;;;;;;;28.49;24.58;100569.06;5050047;28;796;-76
2022/02/03 13:20:36;;;;;;;;;;;;;;;28.87;24.21;100572.31;5069687;28;1186;-76
2022/02/03 13:23:08;;;;;;;;;;;;;;;28.03;25.32;100568.06;5070822;28;962;-76
2022/02/03 13:25:45;;;;;;;;;;;;;;;27.64;26.08;100562.97;5069594;28;1444;-76
2022/02/03 13:28:15;;;;;;;;;;;;;;;28.71;24.59;100569.22;5070853;28;730;-77
2022/02/03 13:30:47;;;;;;;;;;;;;;;27.84;25.78;100559.81;5070636;28;903;-75
2022/02/03 13:33:15;;;;;;;;;;;;;;;28.66;24.80;100559.91;5070682;28;1983;-75
2022/02/03 13:35:51;;;;;;;;;;;;;;;28.12;25.31;100557.38;5070254;28;1346;-76
2022/02/03 13:38:32;;;;;;;;;;;;;;;28.66;25.08;100554.31;5070955;28;1041;-77
2022/02/03 13:41:05;;;;;;;;;;;;;;;27.71;25.59;100544.19;5070595;28;1025;-77
2022/02/03 13:43:38;;;;;;;;;;;;;;;28.92;24.48;100540.84;5071126;28;899;-78
2022/02/03 13:46:04;;;;;;;;;;;;;;;29.61;23.81;100543.44;5070986;28;1304;-78
2022/02/03 13:48:30;;;;;;;;;;;;;;;28.84;24.46;100540.16;5072565;28;899;-78
2022/02/03 13:51:00;;;;;;;;;;;;;;;29.20;24.23;100538.00;5071164;28;971;-78
2022/02/03 13:53:35;;;;;;;;;;;;;;;29.31;24.15;100529.81;5077063;28;1973;-76
2022/02/03 14:15:57;;;;;;;;;;;;;;;28.88;24.76;100519.00;5030916;28;1853;-76
2022/02/03 14:18:35;;;;;;;;;;;;;;;29.11;24.59;100514.38;5034864;28;1245;-73
2022/02/03 14:21:04;;;;;;;;;;;;;;;29.51;24.24;100513.34;5071893;28;927;-74
2022/02/03 14:28:56;;;;;;;;;;;;;;;28.77;24.80;100500.38;5069547;28;1276;-73
2022/02/03 14:31:23;;;;;;;;;;;;;;;29.16;24.72;100503.28;5070169;28;1013;-75
2022/02/03 14:33:49;;;;;;;;;;;;;;;29.13;24.36;100503.78;5070304;28;1938;-76
2022/02/03 14:36:19;;;;;;;;;;;;;;;28.68;24.97;100493.50;5069950;28;1406;-76
2022/02/03 14:38:52;;;;;;;;;;;;;;;29.37;24.17;100486.84;5072051;28;824;-76
2022/02/03 14:41:25;;;;;;;;;;;;;;;29.33;24.55;100486.53;5074709;28;989;-74
2022/02/03 14:43:51;;;;;;;;;;;;;;;29.32;24.22;100489.59;5063265;28;1589;-74
2022/02/03 14:46:18;;;;;;;;;;;;;;;29.12;24.67;100479.75;5053376;28;1408;-75
2022/02/03 14:48:46;;;;;;;;;;;;;;;29.80;24.00;100476.00;5053915;28;955;-77
2022/02/03 14:51:15;;;;;;;;;;;;;;;29.05;24.91;100479.91;5053857;28;962;-75
2022/02/03 14:53:55;;;;;;;;;;;;;;;29.82;24.07;100471.00;5052859;28;1910;-77
2022/02/03 14:59:07;;;;;;;;;;;;;;;28.96;24.77;100477.81;5055226;28;995;-77
2022/02/03 15:01:34;;;;;;;;;;;;;;;29.39;24.39;100485.50;5052522;28;983;-76
2022/02/03 15:04:01;;;;;;;;;;;;;;;28.42;25.61;100480.97;5052380;28;1058;-77
2022/02/03 15:06:34;;;;;;;;;;;;;;;29.31;24.79;100471.13;5054559;28;1430;-77
2022/02/03 15:09:15;;;;;;;;;;;;;;;29.36;24.44;100462.81;5068540;28;1006;-77
2022/02/03 15:11:56;;;;;;;;;;;;;;;29.35;24.54;100469.50;5073417;28;990;-77
2022/02/03 15:14:23;;;;;;;;;;;;;;;28.45;25.98;100464.59;5072723;28;1989;-74
2022/02/03 15:16:49;;;;;;;;;;;;;;;29.06;24.92;100470.44;5072488;28;1002;-76
2022/02/03 15:19:15;;;;;;;;;;;;;;;29.56;24.34;100463.09;5058282;28;1265;-73
2022/02/03 15:21:42;;;;;;;;;;;;;;;28.91;25.22;100466.53;5077341;28;1168;-75
2022/02/03 15:24:09;;;;;;;;;;;;;;;29.54;24.57;100456.94;5075375;28;1042;-77
2022/02/03 15:26:36;;;;;;;;;;;;;;;28.93;25.17;100464.31;5073053;28;1315;-76
2022/02/03 15:29:03;;;;;;;;;;;;;;;28.65;25.67;100466.06;5054935;28;1156;-75
2022/02/03 15:31:32;;;;;;;;;;;;;;;28.26;26.13;100465.88;5072848;28;962;-75
2022/02/03 15:34:05;;;;;;;;;;;;;;;29.45;24.55;100455.69;5072812;28;1918;-76
2022/02/03 15:36:32;;;;;;;;;;;;;;;29.03;25.09;100456.13;5054744;28;1497;-77
2022/02/03 15:38:59;;;;;;;;;;;;;;;28.26;26.03;100451.91;5073406;28;903;-76
2022/02/03 15:41:28;;;;;;;;;;;;;;;28.73;25.88;100454.50;5073082;28;994;-75
2022/02/03 15:43:56;;;;;;;;;;;;;;;27.97;26.25;100451.88;5072648;28;1045;-74
2022/02/03 15:46:25;;;;;;;;;;;;;;;28.49;26.33;100457.41;5072665;28;1284;-75
2022/02/03 15:48:58;;;;;;;;;;;;;;;28.59;26.12;100458.69;5072547;28;986;-74
2022/02/03 15:57:01;;;;;;;;;;;;;;;28.38;26.26;100444.34;5072254;28;1085;-76
2022/02/03 16:02:41;;;;;;;;;;;;;;;29.36;25.39;100441.31;5071379;28;1001;-76
2022/02/03 16:18:54;;;;;;;;;;;;;;;29.31;25.66;100429.22;5066579;28;1165;-74
2022/02/03 16:21:27;;;;;;;;;;;;;;;28.83;25.73;100437.91;5052240;28;844;-75
2022/02/03 16:24:05;;;;;;;;;;;;;;;29.02;25.70;100429.28;5052001;28;951;-76
2022/02/03 16:51:12;;;;;;;;;;;;;;;28.72;26.41;100441.66;5031847;28;994;-76
2022/02/03 16:53:40;;;;;;;;;;;;;;;28.85;26.16;100432.94;5032607;28;1973;-74
2022/02/03 16:56:09;;;;;;;;;;;;;;;27.79;27.76;100437.00;5038084;28;1377;-76
2022/02/03 16:58:36;;;;;;;;;;;;;;;27.27;27.67;100417.44;5033314;28;990;-75
2022/02/03 17:01:03;;;;;;;;;;;;;;;27.56;27.91;100424.81;5029781;28;944;-76
2022/02/03 17:03:29;;;;;;;;;;;;;;;28.17;27.00;100420.81;5036128;28;1018;-76
2022/02/03 17:05:55;;;;;;;;;;;;;;;28.28;26.92;100417.09;5067134;28;1349;-75
2022/02/03 17:08:24;;;;;;;;;;;;;;;29.61;25.29;100411.16;5049812;28;1037;-75
2022/02/03 17:10:51;;;;;;;;;;;;;;;29.21;25.46;100413.13;5050740;28;860;-75
2022/02/03 17:13:17;;;;;;;;;;;;;;;29.26;25.77;100407.59;5050868;28;1918;-76
2022/02/03 17:15:43;;;;;;;;;;;;;;;28.70;26.12;100408.41;5050892;28;1345;-75
2022/02/03 17:18:10;;;;;;;;;;;;;;;29.70;24.91;100406.81;5051105;28;912;-75
2022/02/03 17:20:39;;;;;;;;;;;;;;;29.64;25.16;100402.28;5070849;28;1249;-75
2022/02/03 17:23:08;;;;;;;;;;;;;;;29.28;25.68;100401.78;5069822;28;880;-75
2022/02/03 17:25:45;;;;;;;;;;;;;;;29.35;25.40;100399.63;5070421;28;1292;-75
2022/02/03 17:28:17;;;;;;;;;;;;;;;29.60;25.46;100404.75;5049922;28;2037;-75
2022/02/03 17:30:49;;;;;;;;;;;;;;;29.19;25.80;100402.16;5045452;28;1166;-75
2022/02/03 17:53:02;;;;;;;;;;;;;;;29.63;25.14;100401.41;5028957;28;995;-76
2022/02/03 18:04:25;;;;;;;;;;;;;;;29.35;25.61;100389.28;5011066;28;1391;-79
2022/02/03 18:09:56;;;;;;;;;;;;;;;28.46;26.63;100399.31;5001557;28;1403;-78
2022/02/03 18:26:34;;;;;;;;;;;;;;;28.75;25.96;100378.88;5077964;28;1403;-78
2022/02/03 18:37:37;;;;;;;;;;;;;;;30.04;24.35;100384.31;5027666;28;1477;-76
2022/02/03 18:51:19;;;;;;;;;;;;;;;29.89;24.96;100366.25;5072344;28;1461;-78
2022/02/03 18:53:57;;;;;;;;;;;;;;;29.92;24.72;100359.28;5076023;28;1922;-78
2022/02/03 18:56:32;;;;;;;;;;;;;;;30.28;24.50;100356.84;5074913;28;1475;-78
2022/02/03 18:59:07;;;;;;;;;;;;;;;29.72;24.98;100360.69;5076539;28;1452;-78
2022/02/03 19:01:57;;;;;;;;;;;;;;;29.99;24.91;100354.31;5077451;28;1445;-78
2022/02/03 19:10:28;;;;;;;;;;;;;;;29.80;25.00;100358.53;5070647;28;1448;-77
2022/02/03 19:15:56;;;;;;;;;;;;;;;29.38;25.44;100351.59;5073699;28;1910;-80
2022/02/03 19:21:57;;;;;;;;;;;;;;;29.35;25.71;100343.75;5070425;28;1202;-76
2022/02/03 19:24:25;;;;;;;;;;;;;;;29.41;25.33;100342.72;5063216;28;1286;-76
2022/02/03 19:27:14;;;;;;;;;;;;;;;29.29;25.66;100339.19;5070259;28;1445;-76
2022/02/03 20:00:59;;;;;;;;;;;;;;;29.11;25.56;100304.81;5051674;28;816;-75
2022/02/03 20:05:42;;;;;;;;;;;;;;;29.43;25.00;100309.75;5051072;28;1516;-77
2022/02/03 20:08:14;;;;;;;;;;;;;;;29.71;24.97;100305.03;5053976;28;1405;-77
2022/02/03 20:10:45;;;;;;;;;;;;;;;29.44;25.22;100300.25;5067922;28;1516;-76
2022/02/03 20:13:11;;;;;;;;;;;;;;;28.94;25.85;100299.28;5078556;28;1453;-78
2022/02/03 20:15:39;;;;;;;;;;;;;;;29.32;25.64;100300.38;5083608;28;1910;-78
2022/02/03 20:18:06;;;;;;;;;;;;;;;29.44;25.19;100294.66;5077250;28;1361;-79
2022/02/03 20:20:33;;;;;;;;;;;;;;;28.08;26.37;100297.63;5082670;28;1030;-79
2022/02/03 20:23:01;;;;;;;;;;;;;;;29.29;25.55;100298.13;5075135;28;1413;-77
2022/02/03 20:25:28;;;;;;;;;;;;;;;28.80;26.28;100286.81;5074942;28;1093;-78
2022/02/03 20:27:56;;;;;;;;;;;;;;;29.73;25.17;100284.09;5065641;28;1725;-77
2022/02/03 20:30:22;;;;;;;;;;;;;;;29.33;25.39;100284.47;5072916;28;1476;-78
2022/02/03 20:32:48;;;;;;;;;;;;;;;29.84;25.07;100278.63;5080017;28;1616;-77
2022/02/03 20:35:15;;;;;;;;;;;;;;;29.44;25.41;100277.91;5079855;28;1923;-77
2022/02/03 20:37:41;;;;;;;;;;;;;;;29.41;25.41;100278.44;5077251;28;1332;-77
2022/02/03 20:40:08;;;;;;;;;;;;;;;29.03;25.74;100282.94;5073558;28;1148;-79
2022/02/03 20:42:34;;;;;;;;;;;;;;;29.38;25.52;100274.22;5058048;28;950;-78
2022/02/03 20:45:02;;;;;;;;;;;;;;;29.99;24.87;100273.19;5066846;28;1045;-78
2022/02/03 20:47:30;;;;;;;;;;;;;;;29.51;25.27;100274.91;5068895;28;1394;-77